createdAt,value
2024-01-30T00:00:35.101Z,24.87
2024-01-30T00:03:01.747Z,24.87
2024-01-30T00:05:30.534Z,24.86
2024-01-30T00:07:57.189Z,24.87
2024-01-30T00:10:23.921Z,24.90
2024-01-30T00:12:50.639Z,24.90
2024-01-30T00:15:19.896Z,24.90
2024-01-30T00:17:46.773Z,24.88
2024-01-30T00:20:14.063Z,24.89
2024-01-30T00:22:40.838Z,24.88
2024-01-30T00:25:10.324Z,24.89
2024-01-30T00:27:37.098Z,24.87
2024-01-30T00:30:04.277Z,24.88
2024-01-30T00:32:30.966Z,24.89
2024-01-30T00:34:57.838Z,24.87
2024-01-30T00:37:24.886Z,24.88
2024-01-30T00:39:51.637Z,24.89
2024-01-30T00:42:18.435Z,24.87
2024-01-30T00:44:45.130Z,24.86
2024-01-30T00:47:11.784Z,24.87
2024-01-30T00:49:38.527Z,24.85
2024-01-30T00:52:05.667Z,24.89
2024-01-30T00:54:32.421Z,24.89
2024-01-30T00:56:59.202Z,24.87
2024-01-30T00:59:26.151Z,24.87
2024-01-30T01:01:53.041Z,24.89
2024-01-30T01:04:20.031Z,24.87
2024-01-30T01:06:46.834Z,24.84
2024-01-30T01:09:14.169Z,24.85
2024-01-30T01:11:41.024Z,24.85
2024-01-30T01:14:07.717Z,24.87
2024-01-30T01:16:34.602Z,24.87
2024-01-30T01:19:04.252Z,24.86
2024-01-30T01:22:20.510Z,24.85
2024-01-30T01:24:47.463Z,24.86
2024-01-30T01:27:16.263Z,24.86
2024-01-30T01:29:43.167Z,24.85
2024-01-30T01:32:09.801Z,24.85
2024-01-30T01:34:36.585Z,24.86
2024-01-30T01:37:03.448Z,24.87
2024-01-30T01:39:30.191Z,24.86
2024-01-30T01:41:56.992Z,24.87
2024-01-30T01:44:23.674Z,24.88
2024-01-30T01:46:50.440Z,24.87
2024-01-30T01:49:17.345Z,24.86
2024-01-30T01:51:45.821Z,24.87
2024-01-30T01:54:12.779Z,24.89
2024-01-30T01:56:39.640Z,24.91
2024-01-30T01:59:10.085Z,24.91
2024-01-30T02:01:40.577Z,24.88
2024-01-30T02:04:08.334Z,24.88
2024-01-30T02:06:36.208Z,24.86
2024-01-30T02:09:02.960Z,24.89
2024-01-30T02:11:29.720Z,24.87
2024-01-30T02:13:56.474Z,24.88
2024-01-30T02:16:23.224Z,24.88
2024-01-30T02:18:50.033Z,24.90
2024-01-30T02:21:17.595Z,24.89
2024-01-30T02:23:51.058Z,24.87
2024-01-30T02:26:18.091Z,24.89
2024-01-30T02:29:09.175Z,24.89
2024-01-30T02:31:35.899Z,24.85
2024-01-30T02:34:02.589Z,24.88
2024-01-30T02:36:29.286Z,24.87
2024-01-30T02:38:55.972Z,24.87
2024-01-30T02:41:22.738Z,24.87
2024-01-30T02:43:49.421Z,24.87
2024-01-30T02:46:18.990Z,24.86
2024-01-30T02:48:45.869Z,24.88
2024-01-30T02:51:12.862Z,24.87
2024-01-30T02:53:39.519Z,24.89
2024-01-30T02:56:07.020Z,24.89
2024-01-30T02:58:33.732Z,24.88
2024-01-30T03:01:00.859Z,24.87
2024-01-30T03:03:30.429Z,24.90
2024-01-30T03:05:57.097Z,24.89
2024-01-30T03:08:24.068Z,24.90
2024-01-30T03:10:50.805Z,24.91
2024-01-30T03:13:17.690Z,24.88
2024-01-30T03:15:44.538Z,24.89
2024-01-30T03:18:11.369Z,24.91
2024-01-30T03:20:38.068Z,24.89
2024-01-30T03:23:04.982Z,24.90
2024-01-30T03:25:31.775Z,24.90
2024-01-30T03:28:01.232Z,24.90
2024-01-30T03:30:28.191Z,24.90
2024-01-30T03:32:54.998Z,24.89
2024-01-30T03:35:21.825Z,24.91
2024-01-30T03:37:48.519Z,24.95
2024-01-30T03:40:16.388Z,24.96
2024-01-30T03:42:43.240Z,24.94
2024-01-30T03:45:10.250Z,24.95
2024-01-30T03:47:36.992Z,24.96
2024-01-30T03:50:08.635Z,24.95
2024-01-30T03:52:35.443Z,24.96
2024-01-30T03:55:02.169Z,24.97
2024-01-30T03:57:28.940Z,24.95
2024-01-30T03:59:55.648Z,24.95
2024-01-30T04:02:25.372Z,24.95
2024-01-30T04:04:52.196Z,24.97
2024-01-30T04:07:21.432Z,24.96
2024-01-30T04:09:49.891Z,24.90
2024-01-30T04:12:16.605Z,24.86
2024-01-30T04:14:43.273Z,24.81
2024-01-30T04:17:09.933Z,24.72
2024-01-30T04:19:39.363Z,24.60
2024-01-30T04:22:06.200Z,24.49
2024-01-30T04:24:33.218Z,24.38
2024-01-30T04:26:59.912Z,24.27
2024-01-30T04:29:26.664Z,24.14
2024-01-30T04:31:56.035Z,24.01
2024-01-30T04:34:22.792Z,23.89
2024-01-30T04:36:49.519Z,23.77
2024-01-30T04:39:16.233Z,23.65
2024-01-30T04:41:42.880Z,23.53
2024-01-30T04:44:09.577Z,23.43
2024-01-30T04:46:36.311Z,23.31
2024-01-30T04:49:03.044Z,23.19
2024-01-30T04:51:29.865Z,23.06
2024-01-30T04:53:56.591Z,22.93
2024-01-30T04:56:23.316Z,22.80
2024-01-30T04:58:50.020Z,22.69
2024-01-30T05:01:19.030Z,22.57
2024-01-30T05:03:48.418Z,22.46
2024-01-30T05:06:25.542Z,22.36
2024-01-30T05:08:52.281Z,22.28
2024-01-30T05:11:18.980Z,22.20
2024-01-30T05:13:47.847Z,22.12
2024-01-30T05:16:14.650Z,22.07
2024-01-30T05:18:41.467Z,22.01
2024-01-30T05:21:08.385Z,21.94
2024-01-30T05:23:35.152Z,21.89
2024-01-30T05:26:02.260Z,21.83
2024-01-30T05:28:30.965Z,21.79
2024-01-30T05:30:58.041Z,21.72
2024-01-30T05:33:25.428Z,21.68
2024-01-30T05:35:55.444Z,21.64
2024-01-30T05:38:22.105Z,21.60
2024-01-30T05:40:52.083Z,21.57
2024-01-30T05:43:23.934Z,21.51
2024-01-30T05:45:57.414Z,21.46
2024-01-30T05:48:24.125Z,21.42
2024-01-30T05:50:51.423Z,21.37
2024-01-30T05:53:18.281Z,21.34
2024-01-30T05:55:45.174Z,21.29
2024-01-30T05:58:12.588Z,21.25
2024-01-30T06:00:39.277Z,21.20
2024-01-30T06:03:06.040Z,21.15
2024-01-30T06:05:32.894Z,21.12
2024-01-30T06:08:02.336Z,21.12
2024-01-30T06:10:29.076Z,21.18
2024-01-30T06:12:55.828Z,21.27
2024-01-30T06:15:22.521Z,21.40
2024-01-30T06:17:49.679Z,21.54
2024-01-30T06:20:18.758Z,21.72
2024-01-30T06:22:45.394Z,21.93
2024-01-30T06:25:13.477Z,22.15
2024-01-30T06:27:40.230Z,22.44
2024-01-30T06:30:07.425Z,22.70
2024-01-30T06:32:35.622Z,22.93
2024-01-30T06:35:03.255Z,23.21
2024-01-30T06:37:30.034Z,23.49
2024-01-30T06:39:56.798Z,23.85
2024-01-30T06:42:23.482Z,24.07
2024-01-30T06:44:50.565Z,24.20
2024-01-30T06:47:19.193Z,24.29
2024-01-30T06:49:46.469Z,24.36
2024-01-30T06:52:13.409Z,24.47
2024-01-30T06:54:45.932Z,24.55
2024-01-30T06:57:13.429Z,24.73
2024-01-30T06:59:46.797Z,24.80
2024-01-30T07:02:13.618Z,24.91
2024-01-30T07:04:48.715Z,24.98
2024-01-30T07:07:16.350Z,25.09
2024-01-30T07:09:43.662Z,25.08
2024-01-30T07:12:10.352Z,25.09
2024-01-30T07:14:37.218Z,25.12
2024-01-30T07:17:03.918Z,25.22
2024-01-30T07:19:30.832Z,25.21
2024-01-30T07:21:57.593Z,25.34
2024-01-30T07:24:24.308Z,25.44
2024-01-30T07:26:51.166Z,25.46
2024-01-30T07:29:17.894Z,25.47
2024-01-30T07:31:44.517Z,25.54
2024-01-30T07:34:11.810Z,25.60
2024-01-30T07:36:41.207Z,25.55
2024-01-30T07:39:08.008Z,25.57
2024-01-30T07:41:34.881Z,25.51
2024-01-30T07:44:01.655Z,25.55
2024-01-30T07:46:28.395Z,25.53
2024-01-30T07:48:56.828Z,25.46
2024-01-30T07:51:24.193Z,25.44
2024-01-30T07:53:51.363Z,25.41
2024-01-30T07:56:18.442Z,25.43
2024-01-30T07:58:45.766Z,25.48
2024-01-30T08:01:12.677Z,25.45
2024-01-30T08:03:41.923Z,25.52
2024-01-30T08:06:08.797Z,25.59
2024-01-30T08:08:35.572Z,25.56
2024-01-30T08:11:04.714Z,25.53
2024-01-30T08:13:31.830Z,25.43
2024-01-30T08:15:58.529Z,25.27
2024-01-30T08:18:27.683Z,25.14
2024-01-30T08:20:54.445Z,25.00
2024-01-30T08:23:21.107Z,24.88
2024-01-30T08:25:48.877Z,24.71
2024-01-30T08:28:17.265Z,24.60
2024-01-30T08:30:44.992Z,24.40
2024-01-30T08:33:11.928Z,24.19
2024-01-30T08:35:39.427Z,24.04
2024-01-30T08:38:06.156Z,23.93
2024-01-30T08:40:32.990Z,23.83
2024-01-30T08:42:59.847Z,23.68
2024-01-30T08:45:26.632Z,23.58
2024-01-30T08:47:53.426Z,23.49
2024-01-30T08:50:20.238Z,23.35
2024-01-30T08:52:47.656Z,23.23
2024-01-30T08:55:15.689Z,23.12
2024-01-30T08:57:42.446Z,22.99
2024-01-30T09:00:11.390Z,22.88
2024-01-30T09:02:38.356Z,22.81
2024-01-30T09:05:05.492Z,22.71
2024-01-30T09:07:32.310Z,22.67
2024-01-30T09:09:59.090Z,22.63
2024-01-30T09:12:25.811Z,22.57
2024-01-30T09:14:52.455Z,22.50
2024-01-30T09:17:19.596Z,22.44
2024-01-30T09:19:47.705Z,22.41
2024-01-30T09:22:14.538Z,22.37
2024-01-30T09:24:41.656Z,22.34
2024-01-30T09:27:08.421Z,22.28
2024-01-30T09:29:37.641Z,22.23
2024-01-30T09:32:05.792Z,22.18
2024-01-30T09:34:32.599Z,22.13
2024-01-30T09:37:01.187Z,22.10
2024-01-30T09:39:28.165Z,22.05
2024-01-30T09:42:08.565Z,22.03
2024-01-30T09:44:36.742Z,21.98
2024-01-30T09:47:06.966Z,21.94
2024-01-30T09:49:34.287Z,21.89
2024-01-30T09:52:01.480Z,21.85
2024-01-30T09:54:33.074Z,21.82
2024-01-30T09:57:01.384Z,21.80
2024-01-30T09:59:28.210Z,21.77
2024-01-30T10:01:54.927Z,21.73
2024-01-30T10:04:21.658Z,21.69
2024-01-30T10:06:48.852Z,21.68
2024-01-30T10:09:16.213Z,21.70
2024-01-30T10:11:42.989Z,21.73
2024-01-30T10:14:09.735Z,21.81
2024-01-30T10:16:36.467Z,21.89
2024-01-30T10:19:04.098Z,22.08
2024-01-30T10:21:33.855Z,22.26
2024-01-30T10:24:00.561Z,22.47
2024-01-30T10:26:27.357Z,22.72
2024-01-30T10:28:54.336Z,23.02
2024-01-30T10:31:21.185Z,23.35
2024-01-30T10:33:48.432Z,23.65
2024-01-30T10:36:21.216Z,23.97
2024-01-30T10:38:48.194Z,24.29
2024-01-30T10:41:17.710Z,24.50
2024-01-30T10:43:44.480Z,24.69
2024-01-30T10:46:17.137Z,24.83
2024-01-30T10:51:04.419Z,25.60
2024-01-30T10:53:32.383Z,25.60
2024-01-30T10:55:59.919Z,25.03
2024-01-30T10:58:29.524Z,25.18
2024-01-30T11:00:56.497Z,25.35
2024-01-30T11:03:23.933Z,25.44
2024-01-30T11:05:52.423Z,25.48
2024-01-30T11:08:26.228Z,25.56
2024-01-30T11:10:58.820Z,25.62
2024-01-30T11:13:31.916Z,25.68
2024-01-30T11:16:20.013Z,25.66
2024-01-30T11:18:51.831Z,25.68
2024-01-30T11:21:18.542Z,25.74
2024-01-30T11:23:45.601Z,25.76
2024-01-30T11:26:12.766Z,25.81
2024-01-30T11:28:39.752Z,25.86
2024-01-30T11:31:08.175Z,25.99
2024-01-30T11:33:35.572Z,26.02
2024-01-30T11:36:03.573Z,26.04
2024-01-30T11:38:30.373Z,25.98
2024-01-30T11:40:58.444Z,25.99
2024-01-30T11:43:25.314Z,25.97
2024-01-30T11:45:52.554Z,25.95
2024-01-30T11:48:21.786Z,25.94
2024-01-30T11:50:48.729Z,25.88
2024-01-30T11:53:15.569Z,25.87
2024-01-30T11:55:42.406Z,25.89
2024-01-30T11:58:09.680Z,25.93
2024-01-30T12:00:37.053Z,25.88
2024-01-30T12:03:04.886Z,25.83
2024-01-30T12:05:32.085Z,25.80
2024-01-30T12:08:00.894Z,25.73
2024-01-30T12:10:31.534Z,25.62
2024-01-30T12:12:59.121Z,25.46
2024-01-30T12:15:28.170Z,25.29
2024-01-30T12:18:05.352Z,25.12
2024-01-30T12:20:32.113Z,24.91
2024-01-30T12:22:59.765Z,24.71
2024-01-30T12:25:26.578Z,24.65
2024-01-30T12:27:53.642Z,24.51
2024-01-30T12:30:21.937Z,24.38
2024-01-30T12:32:51.208Z,24.29
2024-01-30T12:35:19.211Z,24.12
2024-01-30T12:37:46.634Z,23.98
2024-01-30T12:40:16.706Z,23.89
2024-01-30T12:42:44.112Z,23.77
2024-01-30T12:45:11.096Z,23.69
2024-01-30T12:47:38.102Z,23.62
2024-01-30T12:50:05.885Z,23.54
2024-01-30T12:52:32.701Z,23.45
2024-01-30T12:54:59.507Z,23.38
2024-01-30T12:57:26.425Z,23.32
2024-01-30T12:59:53.157Z,23.24
2024-01-30T13:02:19.978Z,23.18
2024-01-30T13:04:49.948Z,23.11
2024-01-30T13:07:17.394Z,22.99
2024-01-30T13:09:44.228Z,22.87
2024-01-30T13:12:10.910Z,22.80
2024-01-30T13:14:37.551Z,22.72
2024-01-30T13:17:05.476Z,22.65
2024-01-30T13:19:32.364Z,22.56
2024-01-30T13:21:59.255Z,22.48
2024-01-30T13:24:35.061Z,22.39
2024-01-30T13:27:01.934Z,22.33
2024-01-30T13:29:28.627Z,22.30
2024-01-30T13:31:55.265Z,22.25
2024-01-30T13:34:22.367Z,22.18
2024-01-30T13:36:50.051Z,22.13
2024-01-30T13:39:16.805Z,22.09
2024-01-30T13:41:43.530Z,22.04
2024-01-30T13:44:10.386Z,21.97
2024-01-30T13:46:37.351Z,21.93
2024-01-30T13:49:04.122Z,21.90
2024-01-30T13:51:30.804Z,21.85
2024-01-30T13:53:57.555Z,21.81
2024-01-30T13:57:09.873Z,21.77
2024-01-30T13:59:36.640Z,21.73
2024-01-30T14:02:03.477Z,21.69
2024-01-30T14:04:30.369Z,21.67
2024-01-30T14:07:01.347Z,21.61
2024-01-30T14:09:33.719Z,21.62
2024-01-30T14:12:03.147Z,21.68
2024-01-30T14:14:30.059Z,21.75
2024-01-30T14:16:56.784Z,21.85
2024-01-30T14:19:23.571Z,21.97
2024-01-30T14:21:50.283Z,22.12
2024-01-30T14:24:19.399Z,22.30
2024-01-30T14:26:46.374Z,22.54
2024-01-30T14:29:13.039Z,22.80
2024-01-30T14:31:39.909Z,23.10
2024-01-30T14:34:06.785Z,23.46
2024-01-30T14:36:33.856Z,23.77
2024-01-30T14:39:02.653Z,24.14
2024-01-30T14:41:29.825Z,24.47
2024-01-30T14:43:56.688Z,24.66
2024-01-30T14:46:23.639Z,24.80
2024-01-30T14:48:54.784Z,24.93
2024-01-30T14:51:21.763Z,25.04
2024-01-30T14:53:48.619Z,25.11
2024-01-30T14:56:15.487Z,25.20
2024-01-30T14:58:42.350Z,25.32
2024-01-30T15:01:09.554Z,25.48
2024-01-30T15:03:36.921Z,25.60
2024-01-30T15:06:05.977Z,25.65
2024-01-30T15:08:32.818Z,25.68
2024-01-30T15:11:00.324Z,25.69
2024-01-30T15:13:26.949Z,25.70
2024-01-30T15:15:54.005Z,25.72
2024-01-30T15:18:20.697Z,25.70
2024-01-30T15:20:47.437Z,25.72
2024-01-30T15:23:14.108Z,25.66
2024-01-30T15:25:41.034Z,25.61
2024-01-30T15:28:08.359Z,25.64
2024-01-30T15:30:35.093Z,25.71
2024-01-30T15:33:01.858Z,25.77
2024-01-30T15:35:28.798Z,25.81
2024-01-30T15:37:55.480Z,25.83
2024-01-30T15:40:22.205Z,25.83
2024-01-30T15:42:48.984Z,25.83
2024-01-30T15:45:18.793Z,25.81
2024-01-30T15:47:45.482Z,25.80
2024-01-30T15:50:12.902Z,25.79
2024-01-30T15:52:39.899Z,25.76
2024-01-30T15:55:06.720Z,25.73
2024-01-30T15:57:33.486Z,25.71
2024-01-30T16:00:00.228Z,25.71
2024-01-30T16:02:28.710Z,25.71
2024-01-30T16:04:55.505Z,25.69
2024-01-30T16:07:22.803Z,25.66
2024-01-30T16:09:49.491Z,25.62
2024-01-30T16:12:16.335Z,25.57
2024-01-30T16:14:42.978Z,25.48
2024-01-30T16:17:09.640Z,25.39
2024-01-30T16:19:39.060Z,25.28
2024-01-30T16:22:06.486Z,25.15
2024-01-30T16:24:33.205Z,25.03
2024-01-30T16:27:00.115Z,24.89
2024-01-30T16:29:26.871Z,24.76
2024-01-30T16:31:53.491Z,24.63
2024-01-30T16:34:20.361Z,24.49
2024-01-30T16:36:47.145Z,24.37
2024-01-30T16:39:14.067Z,24.24
2024-01-30T16:41:41.436Z,24.13
2024-01-30T16:44:08.117Z,24.01
2024-01-30T16:46:37.292Z,23.90
2024-01-30T16:49:04.341Z,23.77
2024-01-30T16:51:31.122Z,23.67
2024-01-30T16:53:57.883Z,23.56
2024-01-30T16:56:27.007Z,23.45
2024-01-30T16:58:53.677Z,23.34
2024-01-30T17:01:20.869Z,23.25
2024-01-30T17:03:47.669Z,23.15
2024-01-30T17:06:14.653Z,23.06
2024-01-30T17:08:41.524Z,22.96
2024-01-30T17:11:09.865Z,22.88
2024-01-30T17:13:39.744Z,22.81
2024-01-30T17:16:07.214Z,22.74
2024-01-30T17:18:34.102Z,22.66
2024-01-30T17:21:00.802Z,22.57
2024-01-30T17:23:27.602Z,22.49
2024-01-30T17:25:54.540Z,22.43
2024-01-30T17:28:21.478Z,22.36
2024-01-30T17:30:49.161Z,22.28
2024-01-30T17:33:16.552Z,22.23
2024-01-30T17:35:43.765Z,22.16
2024-01-30T17:38:10.628Z,22.12
2024-01-30T17:40:37.405Z,22.06
2024-01-30T17:43:04.391Z,22.02
2024-01-30T17:45:31.198Z,21.95
2024-01-30T17:47:58.026Z,21.91
2024-01-30T17:50:24.943Z,21.85
2024-01-30T17:52:54.023Z,21.81
2024-01-30T17:55:20.996Z,21.77
2024-01-30T17:57:47.757Z,21.72
2024-01-30T18:00:17.282Z,21.68
2024-01-30T18:02:45.757Z,21.64
2024-01-30T18:05:13.301Z,21.60
2024-01-30T18:07:40.120Z,21.55
2024-01-30T18:10:10.509Z,21.53
2024-01-30T18:12:37.269Z,21.56
2024-01-30T18:15:04.490Z,21.62
2024-01-30T18:17:31.080Z,21.73
2024-01-30T18:19:57.752Z,21.88
2024-01-30T18:22:25.219Z,22.05
2024-01-30T18:24:51.992Z,22.23
2024-01-30T18:27:18.822Z,22.45
2024-01-30T18:29:45.494Z,22.71
2024-01-30T18:32:12.203Z,22.96
2024-01-30T18:34:39.003Z,23.24
2024-01-30T18:37:05.885Z,23.54
2024-01-30T18:39:32.664Z,23.81
2024-01-30T18:41:59.477Z,24.14
2024-01-30T18:44:28.497Z,24.38
2024-01-30T18:46:55.223Z,24.53
2024-01-30T18:49:22.150Z,24.68
2024-01-30T18:51:53.279Z,24.74
2024-01-30T18:54:22.729Z,24.80
2024-01-30T18:56:50.612Z,24.88
2024-01-30T18:59:21.925Z,24.97
2024-01-30T19:01:48.760Z,25.11
2024-01-30T19:04:15.705Z,25.28
2024-01-30T19:06:42.427Z,25.34
2024-01-30T19:09:09.260Z,25.39
2024-01-30T19:11:36.371Z,25.32
2024-01-30T19:14:03.008Z,25.20
2024-01-30T19:16:30.013Z,25.11
2024-01-30T19:18:57.342Z,24.99
2024-01-30T19:21:24.139Z,24.89
2024-01-30T19:23:51.817Z,24.78
2024-01-30T19:26:18.596Z,24.70
2024-01-30T19:28:47.842Z,24.62
2024-01-30T19:31:16.270Z,24.55
2024-01-30T19:33:44.527Z,24.51
2024-01-30T19:36:11.186Z,24.48
2024-01-30T19:38:38.120Z,24.50
2024-01-30T19:41:07.184Z,24.50
2024-01-30T19:43:34.054Z,24.52
2024-01-30T19:46:03.214Z,24.52
2024-01-30T19:48:30.190Z,24.57
2024-01-30T19:50:57.569Z,24.62
2024-01-30T19:53:25.396Z,24.65
2024-01-30T19:55:52.323Z,24.68
2024-01-30T19:58:19.205Z,24.68
2024-01-30T20:00:47.643Z,24.68
2024-01-30T20:03:14.531Z,24.68
2024-01-30T20:05:41.425Z,24.67
2024-01-30T20:08:08.349Z,24.67
2024-01-30T20:10:35.128Z,24.65
2024-01-30T20:13:01.828Z,24.65
2024-01-30T20:15:30.034Z,24.63
2024-01-30T20:17:57.015Z,24.62
2024-01-30T20:20:24.024Z,24.62
2024-01-30T20:22:50.788Z,24.61
2024-01-30T20:25:19.517Z,24.60
2024-01-30T20:27:47.958Z,24.60
2024-01-30T20:30:15.094Z,24.58
2024-01-30T20:32:42.056Z,24.59
2024-01-30T20:35:10.488Z,24.56
2024-01-30T20:37:40.538Z,24.57
2024-01-30T20:40:08.071Z,24.56
2024-01-30T20:42:37.509Z,24.56
2024-01-30T20:45:04.469Z,24.54
2024-01-30T20:47:31.647Z,24.57
2024-01-30T20:49:58.514Z,24.55
2024-01-30T20:52:25.298Z,24.56
2024-01-30T20:54:52.858Z,24.56
2024-01-30T20:57:19.600Z,24.56
2024-01-30T20:59:46.278Z,24.55
2024-01-30T21:02:13.139Z,24.54
2024-01-30T21:04:40.076Z,24.54
2024-01-30T21:07:06.993Z,24.54
2024-01-30T21:09:33.808Z,24.56
2024-01-30T21:12:00.665Z,24.55
2024-01-30T21:14:27.522Z,24.56
2024-01-30T21:16:54.184Z,24.54
2024-01-30T21:19:20.966Z,24.53
2024-01-30T21:21:47.646Z,24.55
2024-01-30T21:24:14.369Z,24.55
2024-01-30T21:26:41.203Z,24.56
2024-01-30T21:29:07.864Z,24.55
2024-01-30T21:31:34.705Z,24.56
2024-01-30T21:34:01.577Z,24.58
2024-01-30T21:36:28.329Z,24.58
2024-01-30T21:38:54.975Z,24.57
2024-01-30T21:41:23.403Z,24.58
2024-01-30T21:43:51.166Z,24.58
2024-01-30T21:46:27.884Z,24.59
2024-01-30T21:48:55.532Z,24.58
2024-01-30T21:51:22.475Z,24.56
2024-01-30T21:53:49.211Z,24.58
2024-01-30T21:56:16.086Z,24.56
2024-01-30T21:58:42.893Z,24.56
2024-01-30T22:01:09.813Z,24.55
2024-01-30T22:03:37.087Z,24.56
2024-01-30T22:06:07.051Z,24.57
2024-01-30T22:08:33.674Z,24.57
2024-01-30T22:11:03.739Z,24.58
2024-01-30T22:13:30.877Z,24.57
2024-01-30T22:15:57.929Z,24.59
2024-01-30T22:18:24.773Z,24.57
2024-01-30T22:20:54.116Z,24.56
2024-01-30T22:23:20.901Z,24.55
2024-01-30T22:25:47.600Z,24.56
2024-01-30T22:28:15.369Z,24.57
2024-01-30T22:30:42.111Z,24.56
2024-01-30T22:33:10.593Z,24.56
2024-01-30T22:35:37.646Z,24.59
2024-01-30T22:38:08.485Z,24.57
2024-01-30T22:40:35.813Z,24.58
2024-01-30T22:43:03.988Z,24.59
2024-01-30T22:45:30.702Z,24.56
2024-01-30T22:47:57.362Z,24.58
2024-01-30T22:50:24.065Z,24.56
2024-01-30T22:52:52.453Z,24.57
2024-01-30T22:55:19.345Z,24.57
2024-01-30T22:57:46.030Z,24.55
2024-01-30T23:00:16.011Z,24.57
2024-01-30T23:02:43.193Z,24.58
2024-01-30T23:05:13.272Z,24.57
2024-01-30T23:07:45.627Z,24.57
2024-01-30T23:10:12.605Z,24.58
2024-01-30T23:12:40.122Z,24.57
2024-01-30T23:15:07.949Z,24.57
2024-01-30T23:17:35.430Z,24.57
2024-01-30T23:20:02.395Z,24.56
2024-01-30T23:22:29.322Z,24.55
2024-01-30T23:24:56.210Z,24.55
2024-01-30T23:27:22.914Z,24.55
2024-01-30T23:29:49.606Z,24.53
2024-01-30T23:32:22.666Z,24.55
2024-01-30T23:34:57.025Z,24.52
2024-01-30T23:37:23.841Z,24.55
2024-01-30T23:39:51.302Z,24.55
2024-01-30T23:42:19.317Z,24.53
2024-01-30T23:44:46.156Z,24.56
2024-01-30T23:47:12.771Z,24.56
2024-01-30T23:49:39.952Z,24.53
2024-01-30T23:52:06.932Z,24.55
2024-01-30T23:54:33.637Z,24.56
2024-01-30T23:57:00.516Z,24.56
2024-01-30T23:59:29.406Z,24.57
